Weather at Hitachi Software Towers B Helipad

Public forecast

Using degrees Celsius for public forecast. Weather courtesy of forecast.io.

Closest aviation weather report (METAR) to Hitachi Software Towers B Helipad

Closest report is Tokyo Haneda International Airport, 3.8 nm (7.0 km) SSE.

2024/07/16 20:30 (retrieved 17 minutes ago)

RJTT 162030Z 03005KT 9999 FEW005 BKN015 23/22 Q1013 NOSIG

Closest aviation forecast (TAF) to Hitachi Software Towers B Helipad

Closest forecast is Tokyo Haneda International Airport, 3.8 nm (7.0 km) SSE.

2024/07/16 18:28 (retrieved 2 hours ago)

TAF RJTT 161710Z 1618/1800 02004KT 9999 FEW010 BKN015 TEMPO 1618/1621 FEW005 BKN008 BECMG 1703/1705 18008KT BECMG 1715/1718 30004KT